Coblentz Heights, MD

11:39 PM EST on January 17, 2017 (GMT -0500)
Braddock Heights, Md | | Change Station

Elev 866 ft 39.41 °N, 77.51 °W | Updated 1 minute ago

Fog
Fog
41.9 °F
Feels Like 40 °F
N
3.7
Wind Variable Wind from ENE

Today
High -- | Low -- °F
--% Chance of Precip.
Yesterday
High -- | Low -- °F
Precip. -- in
Pressure 29.94 in
Visibility 0.5 miles
Clouds Overcast 300 ft
Windchill 40 °F
Dew Point 42 °F
Humidity 99%
Rainfall 0.00 in
Snow Depth Not available.
7:27 AM 5:13 PM
Waning Gibbous, 67% visible
METAR KFDK 180420Z AUTO 36004KT 1/2SM FG OVC003 05/05 A2994 RMK AO2
Pressure 29.94 in
Visibility 0.5 miles
Clouds Overcast 300 ft
Windchill 40 °F
Dew Point 42 °F
Humidity 99%
Rainfall 0.00 in
Snow Depth Not available.
7:27 AM 5:13 PM
Waning Gibbous, 67% visible
METAR KFDK 180420Z AUTO 36004KT 1/2SM FG OVC003 05/05 A2994 RMK AO2

Get Your Daily Forecast Email!

Thanks for signing up!

Be on the lookout for a verification email in your inbox.

You'll start receiving the daily forecast at 8 AM.

×

10-Day Weather Forecast

Almanac

Astronomy

Jan. 17, 2017 Rise Set
Actual Time
Civil Twilight
Nautical Twilight
Astronomical Twilight
Moon
Length of Visible Light
Length of Day
Tomorrow will be .
, % of the Moon is Illuminated

Today's Extremes

State Highs State Lows

Community

WunderPhotos

Upload Photos

1,962,540 photos uploaded!

WunderBlog® & News

Nearby

Air Quality

  Air Quality AQ Index Pollutant
Not available.

Snow Depth

Station Depth Elevation

Earthquake Activity

City Distance Mag. Time & Date
Minimum magnitude displayed is 2.5.

Coastal Water Temperatures

Place Temperature

Stations

Nearby Weather Stations

Station Location Temp. Windchill Dew Point Humidity Wind Precip. Elev Updated Type
                   

Watches & Warnings

Dense Fog Advisory
Issued: 9:20 PM EST Jan. 17, 2017 – National Weather Service

... Dense fog advisory in effect until 4 am EST Wednesday...

The National Weather Service in Baltimore MD/Washington has
issued a dense fog advisory... which is in effect until 4 am EST
Wednesday.

* Visibilities... one quarter mile or less at times.

* Impacts... areas of dense fog will cause sudden reductions in
visibility and rapidly changing travel conditions.

Precautionary/preparedness actions...

A dense fog advisory means visibilities will frequently be
reduced to less than one quarter mile. If driving... slow down...
use low beam headlights... and leave plenty of distance ahead of
you.





Small Craft Advisory
Issued: 6:15 PM EST Jan. 17, 2017 – National Weather Service

... Small Craft Advisory remains in effect from 7 am to 6 PM EST
Wednesday...

* winds... 18 to 33 knots within the Small Craft Advisory.

Precautionary/preparedness actions...

A Small Craft Advisory means winds of 18 to 33 knots are imminent
or occurring. Boaters operating smaller vessels should avoid
navigating in these conditions.